Hassler — WTEK — position and weather

sailwx.info

Track history (hours):
 
Tides and Currents Weather Stations Pressure Air Temp Water Temp Dewpoint Dewpoint Depression Visibility Wind Speed Wind Dir Waves Ship Positions

Oceanographic research ship Hassler (USA)

Last reported at 2019-Jul-17 00:50 UTC. Time now 2019-Aug-24 08:49 UTC.
Position N 30°29' W 081°01'.
Warning: this ship's position is 38 days out of date.

Length 37 m; draft 3.8 m.

MMSI: 369970091.

Date/timePositionNaut miles runAvg speedWind from/ knotsBaromVisibWave heightAir tempDewpointWater temp
2019-Jul-17 00:50N 30°29' W 081°01'3 8.7
2019-Jul-17 00:30N 30°26' W 081°03'9 3.4
2019-Jul-16 21:57N 30°33' W 080°56'9 7.0
2019-Jul-16 20:42N 30°27' W 081°03'1 7.1
2019-Jul-16 20:30N 30°26' W 081°04'8 4.3
2019-Jul-16 18:33N 30°32' W 080°58'  
2019-Jul-09 18:57N 36°57' W 076°20'4 9.3
2019-Jul-09 18:30N 36°53' W 076°20'2 4.5
2019-Jul-09 17:58N 36°51' W 076°18'0 0.0
2019-Jul-09 17:28N 36°51' W 076°18'0 0.0
2019-Jul-09 16:58N 36°51' W 076°18'0 0.0
2019-Jul-09 16:28N 36°51' W 076°18'0 0.0
2019-Jul-09 15:58N 36°51' W 076°18'0 0.0
2019-Jul-09 15:25N 36°51' W 076°18'0 0.0
2019-Jul-09 14:58N 36°51' W 076°18'0 0.0
2019-Jul-09 14:28N 36°51' W 076°18'0 0.0
2019-Jul-09 13:58N 36°51' W 076°18'0 0.0
2019-Jul-09 13:28N 36°51' W 076°18'0 0.0
2019-Jul-09 12:58N 36°51' W 076°18'0 0.0
2019-Jul-09 12:28N 36°51' W 076°18'0 0.0
2019-Jul-09 11:58N 36°51' W 076°18'0 0.0
2019-Jul-09 11:28N 36°51' W 076°18'0 0.0
2019-Jul-09 10:58N 36°51' W 076°18'0 0.0
2019-Jul-09 10:28N 36°51' W 076°18'0 0.0
2019-Jul-09 09:58N 36°51' W 076°18'0 0.0
2019-Jul-09 09:28N 36°51' W 076°18'0 0.0
2019-Jul-09 08:58N 36°51' W 076°18'0 0.0
2019-Jul-09 08:28N 36°51' W 076°18'0 0.0
2019-Jul-09 07:58N 36°51' W 076°18'0 0.0
2019-Jul-09 07:28N 36°51' W 076°18'0 0.0
2019-Jul-09 06:58N 36°51' W 076°18'0 0.0
2019-Jul-09 06:28N 36°51' W 076°18'0 0.0
2019-Jul-09 05:58N 36°51' W 076°18'0 0.0
2019-Jul-09 05:28N 36°51' W 076°18'0 0.0
2019-Jul-09 04:58N 36°51' W 076°18'0 0.0
2019-Jul-09 04:28N 36°51' W 076°18'0 0.0
2019-Jul-09 03:58N 36°51' W 076°18'0 0.0
2019-Jul-09 03:28N 36°51' W 076°18'0 0.0
2019-Jul-09 02:58N 36°51' W 076°18'0 0.0
2019-Jul-09 02:28N 36°51' W 076°18'0 0.0
2019-Jul-09 01:58N 36°51' W 076°18'0 0.0
2019-Jul-09 01:28N 36°51' W 076°18'0 0.0
2019-Jul-09 00:58N 36°51' W 076°18'0 0.0
2019-Jul-09 00:28N 36°51' W 076°18'0 0.0
2019-Jul-08 23:58N 36°51' W 076°18'0 0.0
2019-Jul-08 23:28N 36°51' W 076°18'0 0.0
2019-Jul-08 22:58N 36°51' W 076°18'0 0.0
2019-Jul-08 22:16N 36°51' W 076°18'0 0.0
2019-Jul-08 20:22N 36°51' W 076°18'0 0.0
2019-Jul-08 19:55N 36°51' W 076°18'0 0.0
2019-Jul-08 18:40N 36°51' W 076°18'0 0.0
2019-Jul-08 17:58N 36°51' W 076°18'  
Track history (hours):
 
Tides and Currents Weather Stations Pressure Air Temp Water Temp Dewpoint Dewpoint Depression Visibility Wind Speed Wind Dir Waves Ship Positions

Oceanographic research ship Hassler (USA)

Last reported at 2019-Jul-17 00:50 UTC. Time now 2019-Aug-24 08:49 UTC.
Position N 30°29' W 081°01'.
Warning: this ship's position is 38 days out of date.

Length 37 m; draft 3.8 m.

MMSI: 369970091.

Date/timePositionNaut miles runAvg speedWind from/ knotsBaromVisibWave heightAir tempDewpointWater temp
2019-Jul-17 00:50N 30°29' W 081°01'3 8.7
2019-Jul-17 00:30N 30°26' W 081°03'9 3.4
2019-Jul-16 21:57N 30°33' W 080°56'9 7.0
2019-Jul-16 20:42N 30°27' W 081°03'1 7.1
2019-Jul-16 20:30N 30°26' W 081°04'8 4.3
2019-Jul-16 18:33N 30°32' W 080°58'  
2019-Jul-09 18:57N 36°57' W 076°20'4 9.3
2019-Jul-09 18:30N 36°53' W 076°20'2 4.5
2019-Jul-09 17:58N 36°51' W 076°18'0 0.0
2019-Jul-09 17:28N 36°51' W 076°18'0 0.0
2019-Jul-09 16:58N 36°51' W 076°18'0 0.0
2019-Jul-09 16:28N 36°51' W 076°18'0 0.0
2019-Jul-09 15:58N 36°51' W 076°18'0 0.0
2019-Jul-09 15:25N 36°51' W 076°18'0 0.0
2019-Jul-09 14:58N 36°51' W 076°18'0 0.0
2019-Jul-09 14:28N 36°51' W 076°18'0 0.0
2019-Jul-09 13:58N 36°51' W 076°18'0 0.0
2019-Jul-09 13:28N 36°51' W 076°18'0 0.0
2019-Jul-09 12:58N 36°51' W 076°18'0 0.0
2019-Jul-09 12:28N 36°51' W 076°18'0 0.0
2019-Jul-09 11:58N 36°51' W 076°18'0 0.0
2019-Jul-09 11:28N 36°51' W 076°18'0 0.0
2019-Jul-09 10:58N 36°51' W 076°18'0 0.0
2019-Jul-09 10:28N 36°51' W 076°18'0 0.0
2019-Jul-09 09:58N 36°51' W 076°18'0 0.0
2019-Jul-09 09:28N 36°51' W 076°18'0 0.0
2019-Jul-09 08:58N 36°51' W 076°18'0 0.0
2019-Jul-09 08:28N 36°51' W 076°18'0 0.0
2019-Jul-09 07:58N 36°51' W 076°18'0 0.0
2019-Jul-09 07:28N 36°51' W 076°18'0 0.0
2019-Jul-09 06:58N 36°51' W 076°18'0 0.0
2019-Jul-09 06:28N 36°51' W 076°18'0 0.0
2019-Jul-09 05:58N 36°51' W 076°18'0 0.0
2019-Jul-09 05:28N 36°51' W 076°18'0 0.0
2019-Jul-09 04:58N 36°51' W 076°18'0 0.0
2019-Jul-09 04:28N 36°51' W 076°18'0 0.0
2019-Jul-09 03:58N 36°51' W 076°18'0 0.0
2019-Jul-09 03:28N 36°51' W 076°18'0 0.0
2019-Jul-09 02:58N 36°51' W 076°18'0 0.0
2019-Jul-09 02:28N 36°51' W 076°18'0 0.0
2019-Jul-09 01:58N 36°51' W 076°18'0 0.0
2019-Jul-09 01:28N 36°51' W 076°18'0 0.0
2019-Jul-09 00:58N 36°51' W 076°18'0 0.0
2019-Jul-09 00:28N 36°51' W 076°18'0 0.0
2019-Jul-08 23:58N 36°51' W 076°18'0 0.0
2019-Jul-08 23:28N 36°51' W 076°18'0 0.0
2019-Jul-08 22:58N 36°51' W 076°18'0 0.0
2019-Jul-08 22:16N 36°51' W 076°18'0 0.0
2019-Jul-08 20:22N 36°51' W 076°18'0 0.0
2019-Jul-08 19:55N 36°51' W 076°18'0 0.0
2019-Jul-08 18:40N 36°51' W 076°18'0 0.0
2019-Jul-08 17:58N 36°51' W 076°18'  

Dump ship's entire track history